Time;durP1;ratioP1;P1;durP2;ratioP2;P2;SDS_P1;SDS_P2;PMS_P1;PMS_P2;Temp;Humidity;BMP_temperature;BMP_pressure;BME280_temperature;BME280_humidity;BME280_pressure;Samples;Min_cycle;Max_cycle;Signal;HPM_P1;HPM_P2
2021/03/17 00:00:13;;;;;;;2.00;1.90;;;;;;;;;;6117544;29;20059;-84
2021/03/17 00:03:14;;;;;;;1.90;1.80;;;;;;;;;;6100278;29;20028;-85
2021/03/17 00:06:16;;;;;;;2.13;1.95;;;;;;;;;;6111928;29;20052;-84
2021/03/17 00:09:17;;;;;;;1.85;1.75;;;;;;;;;;6121904;29;20039;-85
2021/03/17 00:12:18;;;;;;;2.22;2.03;;;;;;;;;;6115757;29;20036;-86
2021/03/17 00:15:20;;;;;;;2.45;2.25;;;3.30;99.90;;;;;;6100233;29;20116;-88
2021/03/17 00:18:21;;;;;;;2.20;2.00;;;;;;;;;;6081071;29;20539;-84
2021/03/17 00:21:22;;;;;;;2.30;2.10;;;2.80;99.90;;;;;;6115740;29;20027;-87
2021/03/17 00:24:23;;;;;;;3.30;2.40;;;;;;;;;;6115092;29;20040;-85
2021/03/17 00:27:24;;;;;;;2.20;2.00;;;;;;;;;;6112136;29;20028;-84
2021/03/17 00:30:25;;;;;;;2.30;2.10;;;2.50;99.90;;;;;;6117312;29;20078;-84
2021/03/17 00:33:26;;;;;;;2.25;2.05;;;;;;;;;;6097246;29;20035;-86
2021/03/17 00:36:27;;;;;;;5.40;2.20;;;;;;;;;;6105546;29;20024;-84
2021/03/17 00:39:28;;;;;;;2.58;2.33;;;2.80;99.90;;;;;;6094498;28;20039;-85
2021/03/17 00:42:28;;;;;;;2.63;2.30;;;2.40;99.90;;;;;;6139941;28;20086;-85
2021/03/17 00:45:29;;;;;;;2.47;2.28;;;2.50;99.90;;;;;;6142318;28;20786;-85
2021/03/17 00:48:30;;;;;;;2.70;2.42;;;;;;;;;;6138471;28;20066;-86
2021/03/17 00:51:30;;;;;;;2.75;2.55;;;2.60;99.90;;;;;;6153738;28;20031;-87
2021/03/17 00:54:31;;;;;;;2.75;2.38;;;;;;;;;;6135741;28;20054;-85
2021/03/17 00:57:32;;;;;;;2.50;2.30;;;2.70;99.90;;;;;;6146598;28;20381;-86
2021/03/17 01:00:33;;;;;;;2.20;2.00;;;;;;;;;;6137456;28;20031;-84
2021/03/17 01:03:34;;;;;;;2.30;2.10;;;2.30;99.90;;;;;;6140346;28;20030;-85
2021/03/17 01:06:35;;;;;;;2.63;2.42;;;;;;;;;;6129869;28;20394;-83
2021/03/17 01:09:36;;;;;;;2.38;2.17;;;;;;;;;;6137531;28;20035;-84
2021/03/17 01:12:37;;;;;;;2.20;2.00;;;;;;;;;;6122705;28;20373;-83
2021/03/17 01:15:38;;;;;;;3.00;2.10;;;2.30;99.90;;;;;;6131314;28;20027;-84
2021/03/17 01:18:39;;;;;;;2.08;1.88;;;;;;;;;;6133432;28;20034;-85
2021/03/17 01:21:39;;;;;;;2.95;2.40;;;2.40;99.90;;;;;;6152948;28;20032;-85
2021/03/17 01:24:40;;;;;;;2.50;2.30;;;2.40;99.90;;;;;;6142276;28;20464;-84
2021/03/17 01:27:41;;;;;;;1.80;1.70;;;;;;;;;;6127186;28;20039;-84
2021/03/17 01:30:50;;;;;;;1.88;1.77;;;2.40;99.90;;;;;;6134327;28;20024;-85
2021/03/17 01:33:51;;;;;;;2.30;1.90;;;;;;;;;;6116121;28;20035;-85
2021/03/17 01:36:51;;;;;;;3.35;1.92;;;2.40;99.90;;;;;;6136432;28;20023;-85
2021/03/17 01:39:52;;;;;;;2.30;2.10;;;;;;;;;;6149678;28;20129;-85
2021/03/17 01:42:53;;;;;;;1.88;1.77;;;2.60;99.90;;;;;;6137262;28;20414;-84
2021/03/17 01:45:54;;;;;;;2.10;1.67;;;;;;;;;;6115357;28;20043;-86
2021/03/17 01:48:55;;;;;;;1.85;1.75;;;2.20;99.90;;;;;;6146156;28;20541;-84
2021/03/17 01:51:56;;;;;;;1.88;1.77;;;;;;;;;;6124959;28;20035;-85
2021/03/17 01:54:56;;;;;;;1.80;1.70;;;2.60;99.90;;;;;;6134117;28;20110;-86
2021/03/17 01:57:57;;;;;;;2.15;2.00;;;;;;;;;;6117547;28;20342;-85
2021/03/17 02:00:58;;;;;;;2.20;2.00;;;2.60;99.90;;;;;;6142463;28;20031;-86
2021/03/17 02:03:59;;;;;;;2.53;2.33;;;;;;;;;;6126161;28;20031;-85
2021/03/17 02:07:01;;;;;;;2.63;2.40;;;2.50;99.90;;;;;;6119857;28;20627;-83
2021/03/17 02:10:08;;;;;;;2.80;2.40;;;2.40;99.90;;;;;;6134406;28;20023;-83
2021/03/17 02:13:34;;;;;;;3.15;2.25;;;2.50;99.90;;;;;;6135504;28;20110;-85
2021/03/17 02:16:46;;;;;;;4.30;2.92;;;2.60;99.90;;;;;;6146989;28;20070;-85
2021/03/17 02:20:03;;;;;;;3.10;2.67;;;2.50;99.90;;;;;;6144532;28;20043;-83
2021/03/17 02:23:46;;;;;;;4.22;3.60;;;2.60;99.90;;;;;;6144540;28;20170;-84
2021/03/17 02:27:04;;;;;;;4.75;3.90;;;2.30;99.90;;;;;;6157106;28;20089;-86
2021/03/17 02:30:23;;;;;;;4.65;3.63;;;2.30;99.90;;;;;;6129827;28;20035;-83
2021/03/17 02:33:55;;;;;;;4.10;3.50;;;2.50;99.90;;;;;;6146546;28;20549;-83
2021/03/17 02:37:02;;;;;;;4.50;3.60;;;2.40;99.90;;;;;;6145827;28;20544;-83
2021/03/17 02:40:06;;;;;;;3.35;3.05;;;2.50;99.90;;;;;;6129536;28;20509;-84
2021/03/17 02:43:25;;;;;;;3.70;3.30;;;2.50;99.90;;;;;;6120409;28;20039;-83
2021/03/17 02:46:26;;;;;;;4.88;3.88;;;2.40;99.90;;;;;;6138879;28;20035;-86
2021/03/17 02:49:30;;;;;;;4.13;3.63;;;2.60;99.90;;;;;;6134415;28;20531;-84
2021/03/17 02:52:33;;;;;;;4.78;3.10;;;2.60;99.90;;;;;;6145528;28;20031;-86
2021/03/17 02:55:37;;;;;;;3.58;3.25;;;2.60;99.90;;;;;;6140637;28;20442;-86
2021/03/17 02:58:38;;;;;;;3.92;3.30;;;;;;;;;;6142338;28;20036;-83
2021/03/17 03:01:39;;;;;;;3.72;3.05;;;;;;;;;;6143003;28;20023;-84
2021/03/17 03:04:41;;;;;;;4.25;3.70;;;;;;;;;;6157872;28;20050;-83
2021/03/17 03:07:43;;;;;;;3.60;3.20;;;2.70;99.90;;;;;;6140765;28;20077;-86
2021/03/17 03:10:44;;;;;;;4.50;3.20;;;;;;;;;;6134378;28;20035;-83
2021/03/17 03:13:45;;;;;;;3.83;3.42;;;;;;;;;;6153753;28;20089;-84
2021/03/17 03:16:45;;;;;;;3.83;3.20;;;2.90;99.90;;;;;;6135397;28;20050;-84
2021/03/17 03:19:52;;;;;;;3.80;3.30;;;2.80;99.90;;;;;;6146625;28;20137;-84
2021/03/17 03:22:53;;;;;;;3.28;2.97;;;3.00;99.90;;;;;;6127173;28;20031;-83
2021/03/17 03:25:54;;;;;;;3.25;2.95;;;2.70;99.90;;;;;;6142852;28;20528;-85
2021/03/17 03:28:56;;;;;;;3.67;3.25;;;;;;;;;;6135647;28;20058;-83
2021/03/17 03:31:57;;;;;;;3.60;3.30;;;;;;;;;;6166414;28;20531;-83
2021/03/17 03:34:57;;;;;;;3.42;3.10;;;3.00;99.90;;;;;;6140081;28;20543;-84
2021/03/17 03:37:59;;;;;;;3.30;3.00;;;;;;;;;;6156043;28;20790;-83
2021/03/17 03:41:00;;;;;;;3.47;3.17;;;;;;;;;;6109301;29;20058;-85
2021/03/17 03:44:01;;;;;;;3.40;3.10;;;;;;;;;;6109572;29;20402;-84
2021/03/17 03:47:01;;;;;;;3.25;2.95;;;3.00;99.90;;;;;;6124106;29;20035;-83
2021/03/17 03:50:03;;;;;;;4.13;3.35;;;;;;;;;;6108703;29;20051;-86
2021/03/17 03:53:24;;;;;;;3.65;3.10;;;2.90;99.90;;;;;;6115316;29;20059;-86
2021/03/17 03:56:28;;;;;;;4.90;3.58;;;3.00;99.90;;;;;;6105408;29;20126;-84
2021/03/17 03:59:31;;;;;;;4.80;3.58;;;2.80;99.90;;;;;;6095304;29;20035;-85
2021/03/17 04:02:33;;;;;;;4.10;3.58;;;2.80;99.90;;;;;;6099225;29;20028;-83
2021/03/17 04:05:39;;;;;;;4.30;3.90;;;2.70;99.90;;;;;;6099952;29;20044;-83
2021/03/17 04:08:45;;;;;;;4.30;3.90;;;2.70;99.90;;;;;;6085393;29;20434;-85
2021/03/17 04:11:46;;;;;;;5.10;4.35;;;;;;;;;;6086239;29;20027;-86
2021/03/17 04:14:49;;;;;;;4.30;3.88;;;2.90;99.90;;;;;;6111695;29;20502;-85
2021/03/17 04:18:03;;;;;;;4.25;3.85;;;2.90;99.90;;;;;;6102518;29;20491;-85
2021/03/17 04:21:11;;;;;;;4.88;4.20;;;2.80;99.90;;;;;;6110798;29;20036;-85
2021/03/17 04:24:11;;;;;;;4.50;4.10;;;2.60;99.90;;;;;;6100152;29;20040;-82
2021/03/17 04:27:12;;;;;;;5.85;5.05;;;;;;;;;;6088475;29;20088;-85
2021/03/17 04:30:14;;;;;;;4.50;4.10;;;2.70;99.90;;;;;;6122679;29;20107;-84
2021/03/17 04:33:15;;;;;;;4.88;4.35;;;3.10;99.90;;;;;;6107772;29;20059;-84
2021/03/17 04:36:15;;;;;;;4.72;4.18;;;2.80;99.90;;;;;;6100463;29;20038;-85
2021/03/17 04:39:17;;;;;;;4.53;4.10;;;;;;;;;;6091564;29;20036;-84
2021/03/17 04:42:18;;;;;;;5.03;4.53;;;3.20;99.90;;;;;;6154953;28;20047;-86
2021/03/17 04:45:19;;;;;;;4.78;4.28;;;;;;;;;;6118156;29;20075;-83
2021/03/17 04:48:48;;;;;;;4.90;4.40;;;2.90;99.90;;;;;;6131071;29;20046;-85
2021/03/17 04:51:49;;;;;;;4.57;4.18;;;;;;;;;;6131166;29;20086;-83
2021/03/17 04:54:51;;;;;;;4.85;4.35;;;3.10;99.90;;;;;;6115631;29;20035;-84
2021/03/17 04:57:52;;;;;;;5.00;4.10;;;;;;;;;;6131294;29;20035;-84
2021/03/17 05:00:52;;;;;;;5.78;5.07;;;3.00;99.90;;;;;;6128378;29;20277;-86
2021/03/17 05:03:53;;;;;;;4.65;4.25;;;2.90;99.90;;;;;;6120668;29;20564;-86
2021/03/17 05:06:54;;;;;;;4.45;4.05;;;3.10;99.90;;;;;;6128248;28;20070;-85
2021/03/17 05:09:55;;;;;;;5.18;4.68;;;;;;;;;;6117472;28;20031;-85
2021/03/17 05:12:55;;;;;;;5.07;4.55;;;3.10;99.90;;;;;;6133989;28;20035;-85
2021/03/17 05:15:56;;;;;;;4.97;4.30;;;;;;;;;;6125873;29;20035;-85
2021/03/17 05:18:59;;;;;;;5.35;4.85;;;3.00;99.90;;;;;;6140838;29;20035;-84
2021/03/17 05:22:00;;;;;;;5.32;4.60;;;;;;;;;;6144744;28;20035;-85
2021/03/17 05:25:05;;;;;;;5.57;4.63;;;;;;;;;;6116957;29;20103;-84
2021/03/17 05:28:06;;;;;;;5.28;4.78;;;;;;;;;;6126086;28;20410;-86
2021/03/17 05:31:08;;;;;;;5.82;5.22;;;2.80;99.90;;;;;;6119015;29;20389;-83
2021/03/17 05:34:15;;;;;;;6.10;5.50;;;3.10;99.90;;;;;;6118664;29;20036;-85
2021/03/17 05:37:15;;;;;;;6.03;5.43;;;3.20;99.90;;;;;;6136969;28;20031;-85
2021/03/17 05:40:16;;;;;;;6.88;6.05;;;3.00;99.90;;;;;;6118198;28;20098;-84
2021/03/17 05:43:17;;;;;;;7.97;7.18;;;;;;;;;;6139439;28;20043;-86
2021/03/17 05:46:18;;;;;;;8.48;7.28;;;2.80;99.90;;;;;;6145174;28;20093;-86
2021/03/17 05:49:18;;;;;;;8.15;7.35;;;3.10;99.90;;;;;;6146186;28;20462;-83
2021/03/17 05:52:19;;;;;;;9.35;8.23;;;2.90;99.90;;;;;;6131498;28;20030;-84
2021/03/17 05:55:20;;;;;;;10.25;8.25;;;2.90;99.90;;;;;;6120203;28;20118;-84
2021/03/17 05:58:22;;;;;;;9.57;8.57;;;;;;;;;;6131219;28;20030;-86
2021/03/17 06:01:22;;;;;;;10.07;9.07;;;3.10;99.90;;;;;;6144999;28;20772;-84
2021/03/17 06:04:25;;;;;;;10.60;9.50;;;2.90;99.90;;;;;;6122157;28;20051;-84
2021/03/17 06:07:26;;;;;;;11.52;10.07;;;2.90;99.90;;;;;;6149721;28;20097;-80
2021/03/17 06:10:58;;;;;;;10.68;9.57;;;3.20;99.90;;;;;;6121308;28;20027;-87
2021/03/17 06:13:59;;;;;;;10.07;9.07;;;;;;;;;;6153656;28;20785;-87
2021/03/17 06:17:03;;;;;;;9.55;8.35;;;3.10;99.90;;;;;;6157300;28;20035;-85
2021/03/17 06:20:06;;;;;;;10.88;9.55;;;2.90;99.90;;;;;;6129701;28;20109;-85
2021/03/17 06:23:07;;;;;;;11.45;9.55;;;;;;;;;;6134789;28;20037;-86
2021/03/17 06:26:08;;;;;;;10.90;9.80;;;3.10;99.90;;;;;;6139400;28;20035;-84
2021/03/17 06:29:46;;;;;;;9.50;8.50;;;2.90;99.90;;;;;;6140059;28;20035;-86
2021/03/17 06:32:59;;;;;;;9.68;8.68;;;;;;;;;;6151568;28;20027;-86
2021/03/17 06:36:19;;;;;;;10.57;9.48;;;3.40;99.90;;;;;;6139635;28;20398;-85
2021/03/17 06:39:20;;;;;;;11.25;10.02;;;;;;;;;;6146266;28;20032;-84
2021/03/17 06:42:21;;;;;;;12.43;10.95;;;;;;;;;;6167025;28;20125;-88
2021/03/17 06:45:39;;;;;;;12.35;11.05;;;3.40;99.90;;;;;;6127284;28;20065;-86
2021/03/17 06:48:41;;;;;;;11.45;9.88;;;;;;;;;;6142634;28;20055;-86
2021/03/17 06:51:42;;;;;;;13.05;10.73;;;;;;;;;;6132198;28;20030;-86
2021/03/17 06:55:13;;;;;;;11.88;10.23;;;3.50;99.90;;;;;;6139135;28;20028;-84
2021/03/17 06:58:13;;;;;;;11.10;9.77;;;3.30;99.90;;;;;;6145953;28;20140;-88
2021/03/17 07:01:36;;;;;;;11.20;9.77;;;3.50;99.90;;;;;;6144646;28;20512;-86
2021/03/17 07:04:37;;;;;;;11.75;10.55;;;;;;;;;;6134710;28;20121;-89
2021/03/17 07:07:50;;;;;;;12.65;11.35;;;3.40;99.90;;;;;;6137374;28;20479;-89
2021/03/17 07:10:55;;;;;;;13.30;11.00;;;3.40;99.90;;;;;;6139311;28;20027;-88
2021/03/17 07:14:03;;;;;;;12.30;10.52;;;3.50;99.90;;;;;;6123085;28;20074;-88
2021/03/17 07:17:04;;;;;;;12.25;10.95;;;3.70;99.90;;;;;;6140853;28;20035;-85
2021/03/17 07:20:07;;;;;;;11.52;10.32;;;3.70;99.90;;;;;;6141351;28;20027;-86
2021/03/17 07:23:23;;;;;;;11.30;10.10;;;3.70;99.90;;;;;;6127898;28;20035;-87
2021/03/17 07:26:24;;;;;;;11.93;10.70;;;2.50;99.90;;;;;;6120801;28;20633;-86
2021/03/17 07:29:25;;;;;;;12.43;10.60;;;;;;;;;;6137315;28;20054;-85
2021/03/17 07:32:26;;;;;;;11.35;10.13;;;3.70;99.90;;;;;;6158217;28;20038;-85
2021/03/17 07:35:28;;;;;;;11.85;9.90;;;;;;;;;;6131408;28;20035;-87
2021/03/17 07:38:28;;;;;;;10.38;9.18;;;3.90;99.90;;;;;;6123495;28;20130;-87
2021/03/17 07:41:29;;;;;;;11.25;9.52;;;4.00;99.90;;;;;;6133412;28;20293;-87
2021/03/17 07:44:30;;;;;;;10.77;9.38;;;;;;;;;;6141660;28;20039;-86
2021/03/17 07:47:31;;;;;;;12.52;10.90;;;2.50;99.90;;;;;;6120284;28;20046;-86
2021/03/17 07:50:32;;;;;;;11.77;10.50;;;3.80;99.90;;;;;;6143633;28;20042;-86
2021/03/17 07:53:33;;;;;;;11.85;10.15;;;;;;;;;;6139389;28;20027;-87
2021/03/17 07:56:34;;;;;;;12.73;10.73;;;3.50;99.90;;;;;;6146299;28;20034;-86
2021/03/17 07:59:34;;;;;;;12.93;10.77;;;3.70;99.90;;;;;;6124587;28;20444;-86
2021/03/17 08:02:35;;;;;;;11.32;9.77;;;;;;;;;;6128124;28;20023;-85
2021/03/17 08:05:36;;;;;;;13.00;10.27;;;3.40;99.90;;;;;;6153796;28;20031;-86
2021/03/17 08:08:37;;;;;;;11.93;10.57;;;3.90;99.90;;;;;;6123014;28;20549;-85
2021/03/17 08:11:38;;;;;;;11.95;9.88;;;;;;;;;;6123739;28;20027;-85
2021/03/17 08:14:42;;;;;;;12.20;10.23;;;4.10;99.90;;;;;;6148096;28;20023;-86
2021/03/17 08:17:43;;;;;;;13.30;10.98;;;3.90;99.90;;;;;;6126984;28;20557;-87
2021/03/17 08:20:47;;;;;;;10.90;9.38;;;3.80;99.90;;;;;;6147988;28;20490;-86
2021/03/17 08:23:50;;;;;;;8.00;7.20;;;;;;;;;;6148603;28;20098;-86
2021/03/17 08:26:51;;;;;;;9.18;7.95;;;4.00;99.90;;;;;;6161920;28;20038;-87
2021/03/17 08:30:09;;;;;;;8.57;7.70;;;4.20;99.90;;;;;;6138017;28;20082;-85
2021/03/17 08:33:09;;;;;;;9.48;8.23;;;4.20;99.90;;;;;;6134453;28;20064;-88
2021/03/17 08:36:16;;;;;;;9.25;7.75;;;4.40;99.90;;;;;;6125640;28;20038;-88
2021/03/17 08:39:29;;;;;;;8.15;7.13;;;4.30;99.90;;;;;;6126146;28;20035;-87
2021/03/17 08:42:30;;;;;;;8.30;7.18;;;4.20;99.90;;;;;;6158041;28;20156;-86
2021/03/17 08:45:31;;;;;;;7.78;6.97;;;4.30;99.90;;;;;;6126182;28;20484;-87
2021/03/17 08:48:54;;;;;;;9.15;7.95;;;4.50;99.90;;;;;;6119638;28;20074;-88
2021/03/17 08:51:55;;;;;;;7.63;6.60;;;4.30;99.90;;;;;;6155024;28;20031;-89
2021/03/17 08:54:59;;;;;;;7.88;6.90;;;4.40;99.90;;;;;;6157347;28;20121;-89
2021/03/17 08:58:04;;;;;;;7.90;6.70;;;4.30;99.90;;;;;;6141380;28;20039;-87
2021/03/17 09:01:05;;;;;;;8.48;6.72;;;4.20;99.90;;;;;;6149855;28;20031;-89
2021/03/17 09:04:06;;;;;;;7.45;6.28;;;4.30;99.90;;;;;;6148351;28;20122;-87
2021/03/17 09:07:07;;;;;;;7.65;5.53;;;4.50;99.90;;;;;;6132242;28;20138;-88
2021/03/17 09:10:08;;;;;;;7.13;6.43;;;;;;;;;;6139986;28;20119;-85
2021/03/17 09:13:09;;;;;;;5.93;5.32;;;;;;;;;;6155538;28;20031;-89
2021/03/17 09:16:10;;;;;;;6.18;5.57;;;;;;;;;;6129020;28;20077;-86
2021/03/17 09:19:14;;;;;;;6.57;5.85;;;4.80;99.90;;;;;;6130871;28;20035;-86
2021/03/17 09:22:30;;;;;;;6.05;5.22;;;4.80;99.90;;;;;;6131341;28;20035;-85
2021/03/17 09:25:53;;;;;;;5.82;5.18;;;5.10;99.90;;;;;;6144284;28;20416;-85
2021/03/17 09:28:54;;;;;;;6.60;5.90;;;;;;;;;;6140071;28;20035;-88
2021/03/17 09:31:55;;;;;;;4.38;3.95;;;5.60;99.90;;;;;;6150141;28;20027;-85
2021/03/17 09:34:56;;;;;;;4.88;4.38;;;;;;;;;;6152138;28;20401;-85
2021/03/17 09:38:10;;;;;;;7.18;4.18;;;5.30;99.90;;;;;;6149806;28;20042;-85
2021/03/17 09:41:27;;;;;;;5.80;4.95;;;5.40;99.90;;;;;;6132438;28;20050;-85
2021/03/17 09:44:28;;;;;;;4.68;4.18;;;;;;;;;;6148674;28;20048;-85
2021/03/17 09:47:29;;;;;;;4.10;3.70;;;5.70;99.90;;;;;;6115412;28;20043;-85
2021/03/17 09:50:30;;;;;;;4.70;4.20;;;;;;;;;;6133077;28;20073;-86
2021/03/17 09:53:31;;;;;;;4.55;4.05;;;;;;;;;;6137247;28;20041;-86
2021/03/17 09:56:47;;;;;;;4.88;4.35;;;5.60;99.90;;;;;;6117722;28;20023;-86
2021/03/17 09:59:48;;;;;;;4.68;4.00;;;5.50;99.90;;;;;;6134397;28;20381;-86
2021/03/17 10:02:49;;;;;;;5.25;4.75;;;;;;;;;;6150467;28;20023;-86
2021/03/17 10:05:56;;;;;;;6.25;4.72;;;5.60;99.90;;;;;;6126348;28;20186;-86
2021/03/17 10:08:57;;;;;;;6.25;5.57;;;5.00;99.90;;;;;;6136273;28;20755;-86
2021/03/17 10:12:07;;;;;;;6.40;5.80;;;5.20;99.90;;;;;;6129302;28;20031;-86
2021/03/17 10:15:10;;;;;;;6.47;5.78;;;5.10;99.90;;;;;;6129998;28;20031;-86
2021/03/17 10:18:14;;;;;;;6.32;5.43;;;5.20;99.90;;;;;;6130197;28;20039;-85
2021/03/17 10:21:15;;;;;;;6.10;5.50;;;5.10;99.90;;;;;;6143568;28;20062;-86
2021/03/17 10:24:16;;;;;;;5.82;5.22;;;;;;;;;;6152332;28;20022;-85
2021/03/17 10:27:26;;;;;;;6.25;5.65;;;5.40;99.90;;;;;;6136898;28;20038;-86
2021/03/17 10:30:34;;;;;;;12.95;9.52;;;5.70;99.90;;;;;;6134308;28;20478;-85
2021/03/17 10:33:35;;;;;;;11.85;9.52;;;;;;;;;;6150056;28;20069;-85
2021/03/17 10:36:37;;;;;;;28.25;17.33;;;;;;;;;;6130768;28;20023;-86
2021/03/17 10:39:38;;;;;;;12.43;10.18;;;6.00;99.90;;;;;;6152318;28;20034;-85
2021/03/17 10:42:43;;;;;;;9.25;7.75;;;6.10;99.90;;;;;;6152233;28;20400;-85
2021/03/17 10:45:48;;;;;;;8.43;6.65;;;6.00;99.70;;;;;;6136448;28;20035;-86
2021/03/17 10:48:48;;;;;;;7.60;6.35;;;6.00;98.20;;;;;;6113592;28;20043;-84
2021/03/17 10:51:56;;;;;;;7.10;6.40;;;5.80;99.90;;;;;;6129446;28;20032;-86
2021/03/17 10:54:57;;;;;;;8.43;7.03;;;5.70;99.90;;;;;;6151172;28;20085;-86
2021/03/17 10:58:13;;;;;;;7.65;6.70;;;5.50;99.90;;;;;;6136119;28;20409;-86
2021/03/17 11:01:21;;;;;;;7.43;6.65;;;5.50;99.90;;;;;;6130639;28;20049;-87
2021/03/17 11:04:21;;;;;;;9.15;8.15;;;5.50;99.90;;;;;;6130118;28;21028;-87
2021/03/17 11:07:22;;;;;;;8.15;7.35;;;5.40;99.90;;;;;;6140296;28;20035;-86
2021/03/17 11:10:34;;;;;;;8.82;7.93;;;5.30;99.90;;;;;;6137030;28;20389;-86
2021/03/17 11:13:37;;;;;;;9.20;8.30;;;5.20;99.90;;;;;;6119805;28;20468;-86
2021/03/17 11:16:41;;;;;;;10.00;9.00;;;;;;;;;;6135892;28;20046;-86
2021/03/17 11:19:42;;;;;;;10.48;9.38;;;5.20;99.90;;;;;;6139111;28;20033;-85
2021/03/17 11:22:43;;;;;;;9.95;8.95;;;;;;;;;;6132626;28;20034;-86
2021/03/17 11:25:44;;;;;;;10.82;9.73;;;5.10;99.90;;;;;;6155470;28;20386;-86
2021/03/17 11:28:45;;;;;;;11.38;9.45;;;;;;;;;;6146715;28;20147;-86
2021/03/17 11:31:46;;;;;;;11.40;10.18;;;5.20;99.90;;;;;;6133718;28;20027;-85
2021/03/17 11:34:47;;;;;;;13.45;10.52;;;;;;;;;;6133037;28;20471;-85
2021/03/17 11:37:48;;;;;;;12.68;10.77;;;5.30;99.90;;;;;;6144885;28;20019;-86
2021/03/17 11:40:49;;;;;;;12.10;10.43;;;;;;;;;;6142877;28;20481;-85
2021/03/17 11:43:50;;;;;;;11.40;10.00;;;5.20;99.90;;;;;;6125880;28;20031;-85
2021/03/17 11:46:50;;;;;;;12.82;10.13;;;5.00;99.90;;;;;;6132775;28;20039;-85
2021/03/17 11:49:51;;;;;;;10.77;9.55;;;;;;;;;;6133545;28;20396;-84
2021/03/17 11:52:52;;;;;;;10.07;8.98;;;5.20;99.90;;;;;;6159229;28;20461;-85
2021/03/17 11:55:53;;;;;;;10.48;9.18;;;5.30;99.90;;;;;;6116950;28;20038;-85
2021/03/17 11:58:53;;;;;;;9.93;8.75;;;5.70;99.90;;;;;;6136217;28;20393;-84
2021/03/17 12:01:54;;;;;;;9.70;8.70;;;5.40;99.90;;;;;;6132556;28;20088;-85
2021/03/17 12:04:55;;;;;;;9.82;8.40;;;;;;;;;;6136854;28;20118;-85
2021/03/17 12:07:55;;;;;;;7.50;6.53;;;5.80;99.90;;;;;;6132580;28;20039;-85
2021/03/17 12:10:56;;;;;;;7.15;6.45;;;6.10;99.90;;;;;;6123695;28;20484;-84
2021/03/17 12:13:57;;;;;;;5.25;4.65;;;;;;;;;;6133224;28;20027;-84
2021/03/17 12:16:58;;;;;;;5.45;4.95;;;5.80;98.80;;;;;;6139190;28;20041;-83
2021/03/17 12:19:58;;;;;;;7.82;6.35;;;5.60;99.90;;;;;;6135193;28;20122;-85
2021/03/17 12:23:00;;;;;;;10.43;8.15;;;5.70;99.90;;;;;;6138800;28;20035;-81
2021/03/17 12:26:01;;;;;;;9.35;8.00;;;5.80;99.90;;;;;;6122896;28;20552;-86
2021/03/17 12:29:01;;;;;;;6.63;5.93;;;6.20;99.90;;;;;;6125674;28;20046;-87
2021/03/17 12:32:03;;;;;;;5.28;4.50;;;;;;;;;;6140623;28;20393;-89
2021/03/17 12:35:05;;;;;;;5.82;4.95;;;6.30;99.90;;;;;;6123613;28;20051;-88
2021/03/17 12:38:06;;;;;;;5.82;5.22;;;6.90;99.90;;;;;;6125839;28;20035;-83
2021/03/17 12:41:07;;;;;;;7.43;5.00;;;;;;;;;;6125035;28;20097;-84
2021/03/17 12:44:07;;;;;;;6.45;5.20;;;7.20;97.80;;;;;;6131958;28;20042;-84
2021/03/17 12:47:08;;;;;;;5.53;4.63;;;;;;;;;;6125507;28;20074;-89
2021/03/17 12:50:11;;;;;;;5.60;5.00;;;7.70;99.90;;;;;;6140409;28;20035;-89
2021/03/17 12:53:11;;;;;;;5.22;4.65;;;8.10;97.10;;;;;;6144461;28;20371;-89
2021/03/17 12:56:14;;;;;;;5.85;5.25;;;7.70;97.20;;;;;;6130859;28;20030;-89
2021/03/17 12:59:15;;;;;;;7.22;5.43;;;7.70;97.60;;;;;;6147600;28;20033;-89
2021/03/17 13:02:16;;;;;;;6.07;5.20;;;;;;;;;;6127640;28;20027;-89
2021/03/17 13:05:19;;;;;;;6.20;5.60;;;7.20;99.90;;;;;;6147583;28;20029;-90
2021/03/17 13:08:20;;;;;;;6.80;5.28;;;6.80;99.90;;;;;;6125667;28;20078;-90
2021/03/17 13:11:21;;;;;;;5.60;5.10;;;;;;;;;;6143582;28;20097;-89
2021/03/17 13:14:24;;;;;;;6.18;5.57;;;;;;;;;;6144386;28;20121;-88
2021/03/17 13:17:25;;;;;;;5.93;5.32;;;7.30;99.90;;;;;;6143716;28;20389;-88
2021/03/17 13:20:26;;;;;;;7.63;6.43;;;;;;;;;;6127607;28;20023;-88
2021/03/17 13:23:27;;;;;;;7.80;6.63;;;7.80;99.90;;;;;;6127836;28;20038;-88
2021/03/17 13:26:28;;;;;;;9.00;6.15;;;;;;;;;;6139292;28;20390;-88
2021/03/17 13:29:29;;;;;;;7.57;6.85;;;7.50;99.90;;;;;;6138624;28;20031;-88
2021/03/17 13:32:31;;;;;;;8.60;7.35;;;;;;;;;;6132936;28;20037;-90
2021/03/17 13:35:36;;;;;;;10.10;8.47;;;;;;;;;;6137142;28;20560;-88
2021/03/17 13:38:37;;;;;;;9.93;8.35;;;7.20;99.90;;;;;;6143596;28;20270;-86
2021/03/17 13:41:38;;;;;;;10.10;8.63;;;7.50;99.90;;;;;;6134084;28;20066;-91
2021/03/17 13:44:38;;;;;;;9.80;8.00;;;7.10;99.90;;;;;;6141481;28;20030;-89
2021/03/17 13:47:39;;;;;;;10.18;8.55;;;7.00;99.90;;;;;;6118536;28;20546;-86
2021/03/17 13:50:40;;;;;;;10.60;9.10;;;;;;;;;;6122082;28;20035;-90
2021/03/17 13:53:41;;;;;;;11.32;8.75;;;7.50;99.90;;;;;;6147266;28;20031;-87
2021/03/17 13:56:48;;;;;;;8.93;7.63;;;7.20;95.90;;;;;;6131839;28;20063;-89
2021/03/17 14:00:07;;;;;;;8.38;7.13;;;;;;;;;;6143167;28;20074;-90
2021/03/17 14:03:08;;;;;;;11.18;9.02;;;;;;;;;;6140979;28;20039;-91
2021/03/17 14:06:09;;;;;;;10.40;8.80;;;;;;;;;;6133102;28;20026;-90
2021/03/17 14:09:11;;;;;;;10.73;7.63;;;;;;;;;;6139054;28;20038;-89
2021/03/17 14:12:12;;;;;;;6.45;4.60;;;;;;;;;;6122651;28;20109;-89
2021/03/17 14:15:29;;;;;;;5.53;4.43;;;;;;;;;;6138035;28;20034;-89
2021/03/17 14:18:29;;;;;;;5.25;4.22;;;4.90;99.90;;;;;;6143247;28;20362;-88
2021/03/17 14:21:31;;;;;;;5.63;4.10;;;;;;;;;;6127911;28;20035;-86
2021/03/17 14:24:31;;;;;;;5.10;4.00;;;4.80;99.90;;;;;;6156965;28;20540;-89
2021/03/17 14:27:33;;;;;;;4.72;4.03;;;;;;;;;;6144615;28;20047;-88
2021/03/17 14:30:35;;;;;;;4.82;4.10;;;;;;;;;;6141868;28;20481;-88
2021/03/17 14:33:36;;;;;;;5.00;4.43;;;;;;;;;;6121723;28;20042;-88
2021/03/17 14:36:37;;;;;;;4.57;4.07;;;5.00;99.90;;;;;;6138862;28;20038;-86
2021/03/17 14:39:47;;;;;;;6.15;4.90;;;;;;;;;;6130142;28;20038;-88
2021/03/17 14:42:48;;;;;;;5.63;4.55;;;5.10;99.90;;;;;;6144881;28;20051;-89
2021/03/17 14:45:49;;;;;;;5.63;4.75;;;;;;;;;;6112548;29;20047;-89
2021/03/17 14:48:50;;;;;;;6.20;5.00;;;5.10;99.90;;;;;;6122829;28;20519;-87
2021/03/17 14:51:51;;;;;;;5.18;4.47;;;;;;;;;;6114024;29;20055;-88
2021/03/17 14:59:00;;;;;;;6.07;4.70;;;;;;;;;;6113350;29;20039;-90
2021/03/17 15:02:18;;;;;;;4.80;4.30;;;5.40;99.10;;;;;;6136961;28;20560;-89
2021/03/17 15:05:22;;;;;;;6.72;4.40;;;5.40;97.20;;;;;;6147494;28;20086;-90
2021/03/17 15:08:34;;;;;;;5.60;4.50;;;5.30;99.90;;;;;;6126465;29;20055;-89
2021/03/17 15:11:35;;;;;;;5.43;4.23;;;;;;;;;;6146399;29;20027;-88
2021/03/17 15:14:48;;;;;;;5.50;4.40;;;5.20;99.90;;;;;;6140339;29;20094;-91
2021/03/17 15:17:49;;;;;;;;;;;5.50;99.90;;;;;;6134655;28;20054;-86
2021/03/17 15:20:55;;;;;;;5.95;4.30;;;5.10;98.10;;;;;;6142165;28;19906;-90
2021/03/17 15:23:56;;;;;;;4.88;3.92;;;;;;;;;;6140229;28;20042;-90
2021/03/17 15:26:57;;;;;;;5.10;4.10;;;5.00;99.90;;;;;;6143458;28;20039;-88
2021/03/17 15:34:03;;;;;;;5.00;4.43;;;5.20;98.50;;;;;;6154429;28;20035;-92
2021/03/17 15:37:17;;;;;;;15.48;8.50;;;5.10;99.90;;;;;;6159143;28;20039;-92
2021/03/17 15:40:21;;;;;;;5.30;4.30;;;5.10;98.70;;;;;;6157231;28;20051;-92
2021/03/17 15:43:23;;;;;;;4.72;4.18;;;;;;;;;;6087733;29;20079;-90
2021/03/17 15:46:23;;;;;;;4.05;3.58;;;5.50;99.90;;;;;;6100077;29;20036;-87
2021/03/17 15:49:24;;;;;;;5.68;4.38;;;;;;;;;;6122099;29;20036;-89
2021/03/17 15:52:30;;;;;;;4.18;3.55;;;5.10;99.90;;;;;;6113738;29;20594;-89
2021/03/17 15:55:31;;;;;;;4.32;3.70;;;5.40;99.90;;;;;;6094382;29;20123;-89
2021/03/17 15:58:32;;;;;;;4.43;3.65;;;;;;;;;;6080161;29;20488;-88
2021/03/17 16:01:33;;;;;;;6.38;4.57;;;;;;;;;;6115482;29;20530;-86
2021/03/17 16:04:34;;;;;;;5.15;3.80;;;;;;;;;;6102740;29;20030;-87
2021/03/17 16:07:35;;;;;;;5.18;4.47;;;5.60;99.90;;;;;;6115614;29;20495;-88
2021/03/17 16:10:38;;;;;;;5.70;4.20;;;;;;;;;;6110157;29;20039;-89
2021/03/17 16:13:39;;;;;;;5.47;4.97;;;;;;;;;;6113610;29;20020;-87
2021/03/17 16:16:43;;;;;;;5.00;4.35;;;;;;;;;;6096801;29;20067;-94
2021/03/17 16:19:48;;;;;;;4.25;3.58;;;;;;;;;;6119179;29;20031;-90
2021/03/17 16:22:49;;;;;;;5.15;3.45;;;;;;;;;;6114375;29;20028;-88
2021/03/17 16:25:50;;;;;;;3.63;3.15;;;;;;;;;;6121940;29;20031;-89
2021/03/17 16:28:51;;;;;;;3.17;2.67;;;;;;;;;;6104534;29;20078;-88
2021/03/17 16:31:57;;;;;;;3.20;2.80;;;;;;;;;;6116266;29;20027;-89
2021/03/17 16:35:00;;;;;;;2.53;2.30;;;;;;;;;;6098333;29;20020;-92
2021/03/17 16:38:04;;;;;;;2.60;2.20;;;;;;;;;;6098463;29;20433;-91
2021/03/17 16:41:08;;;;;;;7.22;4.35;;;4.60;99.90;;;;;;6110905;29;20458;-90
2021/03/17 16:44:09;;;;;;;3.15;2.60;;;;;;;;;;6128723;29;20055;-88
2021/03/17 16:47:33;;;;;;;3.22;2.92;;;3.80;99.90;;;;;;6117959;29;20043;-88
2021/03/17 16:50:34;;;;;;;3.65;2.92;;;;;;;;;;6118636;29;20039;-83
2021/03/17 16:53:35;;;;;;;5.63;3.10;;;;;;;;;;6130620;29;20054;-84
2021/03/17 16:56:43;;;;;;;4.60;2.83;;;;;;;;;;6113824;29;20611;-93
2021/03/17 16:59:50;;;;;;;3.28;2.78;;;4.10;99.90;;;;;;6111595;29;20024;-90